ミラノ/マルペンサ の空港の天気 - METARとTAF

ミラノ・マルペンサ国際空港 ( LIMC / MXP ) - イタリア ミラノ
飛行場実況気象(Metar)
観測時間03/07 02:20 CET (03/07 01:20 UTC)
風向・風速北 2m/s
視程10km以上
天気現象
なし
気温-1℃
湿度93%
気圧1028hPa
METARLIMC 070120Z 35003KT CAVOK M01/M02 Q1028 NOSIG
過去の天気等 Google飛行場航空写真 Wunderground天気予報

過去48時間のMETAR

飛行場予報(TAF)
発表時間: 3/07 00:00 CET (3/06 23:00 UTC)
予報対象時間: 7日1時 CET ~ 8日7時 CET
風向・風速不定 3m/s
視程10km以上
全天の4割程度の雲 雲底高度 1220m
TAF LIMC 062300Z 0700/0806 VRB05KT 9999 SCT040